sensor_id;sensor_type;location;lat;lon;timestamp;P1;durP1;ratioP1;P2;durP2;ratioP2
13343;SDS011;6741;48.964;9.406;2023-02-24T00:01:13;18.17;;;15.97;;
13343;SDS011;6741;48.964;9.406;2023-02-24T00:03:49;20.97;;;18.10;;
13343;SDS011;6741;48.964;9.406;2023-02-24T00:06:16;19.43;;;17.37;;
13343;SDS011;6741;48.964;9.406;2023-02-24T00:08:45;22.43;;;17.30;;
13343;SDS011;6741;48.964;9.406;2023-02-24T00:11:13;23.57;;;18.10;;
13343;SDS011;6741;48.964;9.406;2023-02-24T00:13:42;22.83;;;19.43;;
13343;SDS011;6741;48.964;9.406;2023-02-24T00:16:11;22.67;;;18.30;;
13343;SDS011;6741;48.964;9.406;2023-02-24T00:18:41;25.67;;;19.83;;
13343;SDS011;6741;48.964;9.406;2023-02-24T00:21:09;23.93;;;19.17;;
13343;SDS011;6741;48.964;9.406;2023-02-24T00:23:39;24.57;;;19.37;;
13343;SDS011;6741;48.964;9.406;2023-02-24T00:26:09;22.90;;;20.10;;
13343;SDS011;6741;48.964;9.406;2023-02-24T00:28:36;25.47;;;22.37;;
13343;SDS011;6741;48.964;9.406;2023-02-24T00:31:04;29.53;;;24.07;;
13343;SDS011;6741;48.964;9.406;2023-02-24T00:33:33;33.40;;;26.63;;
13343;SDS011;6741;48.964;9.406;2023-02-24T00:36:03;26.77;;;21.57;;
13343;SDS011;6741;48.964;9.406;2023-02-24T00:38:32;25.10;;;19.93;;
13343;SDS011;6741;48.964;9.406;2023-02-24T00:41:01;26.43;;;21.17;;
13343;SDS011;6741;48.964;9.406;2023-02-24T00:43:38;24.20;;;20.53;;
13343;SDS011;6741;48.964;9.406;2023-02-24T00:46:11;26.77;;;20.83;;
13343;SDS011;6741;48.964;9.406;2023-02-24T00:48:41;27.23;;;21.53;;
13343;SDS011;6741;48.964;9.406;2023-02-24T00:51:11;25.13;;;19.27;;
13343;SDS011;6741;48.964;9.406;2023-02-24T00:53:40;23.27;;;18.83;;
13343;SDS011;6741;48.964;9.406;2023-02-24T00:56:10;20.70;;;18.23;;
13343;SDS011;6741;48.964;9.406;2023-02-24T00:58:37;23.23;;;19.20;;
13343;SDS011;6741;48.964;9.406;2023-02-24T01:01:10;24.40;;;21.07;;
13343;SDS011;6741;48.964;9.406;2023-02-24T01:03:38;23.40;;;19.40;;
13343;SDS011;6741;48.964;9.406;2023-02-24T01:06:06;24.97;;;20.67;;
13343;SDS011;6741;48.964;9.406;2023-02-24T01:08:33;27.40;;;20.87;;
13343;SDS011;6741;48.964;9.406;2023-02-24T01:11:01;25.80;;;20.00;;
13343;SDS011;6741;48.964;9.406;2023-02-24T01:13:47;32.47;;;21.60;;
13343;SDS011;6741;48.964;9.406;2023-02-24T01:16:14;32.23;;;23.07;;
13343;SDS011;6741;48.964;9.406;2023-02-24T01:18:43;34.20;;;23.37;;
13343;SDS011;6741;48.964;9.406;2023-02-24T01:21:11;34.00;;;25.53;;
13343;SDS011;6741;48.964;9.406;2023-02-24T01:23:39;32.87;;;25.67;;
13343;SDS011;6741;48.964;9.406;2023-02-24T01:26:06;36.17;;;25.53;;
13343;SDS011;6741;48.964;9.406;2023-02-24T01:28:34;33.23;;;26.37;;
13343;SDS011;6741;48.964;9.406;2023-02-24T01:31:03;36.03;;;27.17;;
13343;SDS011;6741;48.964;9.406;2023-02-24T01:33:31;37.07;;;27.63;;
13343;SDS011;6741;48.964;9.406;2023-02-24T01:36:07;39.20;;;28.13;;
13343;SDS011;6741;48.964;9.406;2023-02-24T01:38:34;39.50;;;28.60;;
13343;SDS011;6741;48.964;9.406;2023-02-24T01:41:03;41.23;;;29.13;;
13343;SDS011;6741;48.964;9.406;2023-02-24T01:43:31;39.33;;;29.90;;
13343;SDS011;6741;48.964;9.406;2023-02-24T01:45:59;40.00;;;29.77;;
13343;SDS011;6741;48.964;9.406;2023-02-24T01:48:27;41.97;;;30.07;;
13343;SDS011;6741;48.964;9.406;2023-02-24T01:50:55;37.60;;;28.90;;
13343;SDS011;6741;48.964;9.406;2023-02-24T01:53:23;43.80;;;31.40;;
13343;SDS011;6741;48.964;9.406;2023-02-24T01:55:50;43.47;;;29.13;;
13343;SDS011;6741;48.964;9.406;2023-02-24T01:58:19;39.40;;;28.87;;
13343;SDS011;6741;48.964;9.406;2023-02-24T02:00:49;40.33;;;28.77;;
13343;SDS011;6741;48.964;9.406;2023-02-24T02:03:17;40.10;;;30.43;;
13343;SDS011;6741;48.964;9.406;2023-02-24T02:05:50;38.83;;;27.93;;
13343;SDS011;6741;48.964;9.406;2023-02-24T02:08:18;42.57;;;30.47;;
13343;SDS011;6741;48.964;9.406;2023-02-24T02:10:49;41.30;;;30.53;;
13343;SDS011;6741;48.964;9.406;2023-02-24T02:13:23;37.83;;;27.93;;
13343;SDS011;6741;48.964;9.406;2023-02-24T02:15:57;37.50;;;28.83;;
13343;SDS011;6741;48.964;9.406;2023-02-24T02:18:34;41.90;;;28.57;;
13343;SDS011;6741;48.964;9.406;2023-02-24T02:24:21;37.33;;;27.50;;
13343;SDS011;6741;48.964;9.406;2023-02-24T02:27:02;42.10;;;30.63;;
13343;SDS011;6741;48.964;9.406;2023-02-24T02:29:47;45.53;;;32.03;;
13343;SDS011;6741;48.964;9.406;2023-02-24T02:32:41;44.20;;;31.80;;
13343;SDS011;6741;48.964;9.406;2023-02-24T02:35:34;45.33;;;30.10;;
13343;SDS011;6741;48.964;9.406;2023-02-24T02:38:06;44.87;;;30.73;;
13343;SDS011;6741;48.964;9.406;2023-02-24T02:40:40;42.20;;;29.53;;
13343;SDS011;6741;48.964;9.406;2023-02-24T02:43:11;38.87;;;27.97;;
13343;SDS011;6741;48.964;9.406;2023-02-24T02:45:44;41.73;;;29.47;;
13343;SDS011;6741;48.964;9.406;2023-02-24T02:48:22;42.53;;;29.43;;
13343;SDS011;6741;48.964;9.406;2023-02-24T02:51:00;42.80;;;30.33;;
13343;SDS011;6741;48.964;9.406;2023-02-24T02:53:31;47.20;;;30.37;;
13343;SDS011;6741;48.964;9.406;2023-02-24T02:56:05;43.23;;;30.47;;
13343;SDS011;6741;48.964;9.406;2023-02-24T02:58:37;41.10;;;29.80;;
13343;SDS011;6741;48.964;9.406;2023-02-24T03:01:07;44.17;;;30.60;;
13343;SDS011;6741;48.964;9.406;2023-02-24T03:03:37;48.83;;;31.07;;
13343;SDS011;6741;48.964;9.406;2023-02-24T03:06:08;43.83;;;30.63;;
13343;SDS011;6741;48.964;9.406;2023-02-24T03:08:40;46.77;;;30.40;;
13343;SDS011;6741;48.964;9.406;2023-02-24T03:11:16;49.13;;;30.47;;
13343;SDS011;6741;48.964;9.406;2023-02-24T03:13:45;43.60;;;29.43;;
13343;SDS011;6741;48.964;9.406;2023-02-24T03:16:16;42.87;;;30.90;;
13343;SDS011;6741;48.964;9.406;2023-02-24T03:18:44;45.37;;;30.63;;
13343;SDS011;6741;48.964;9.406;2023-02-24T03:21:18;45.77;;;30.83;;
13343;SDS011;6741;48.964;9.406;2023-02-24T03:23:53;44.67;;;30.23;;
13343;SDS011;6741;48.964;9.406;2023-02-24T03:26:21;42.13;;;29.40;;
13343;SDS011;6741;48.964;9.406;2023-02-24T03:28:55;47.40;;;30.90;;
13343;SDS011;6741;48.964;9.406;2023-02-24T03:31:27;44.30;;;28.97;;
13343;SDS011;6741;48.964;9.406;2023-02-24T03:33:59;44.03;;;28.33;;
13343;SDS011;6741;48.964;9.406;2023-02-24T03:36:31;44.37;;;29.53;;
13343;SDS011;6741;48.964;9.406;2023-02-24T03:38:59;44.77;;;29.80;;
13343;SDS011;6741;48.964;9.406;2023-02-24T03:41:30;38.63;;;27.67;;
13343;SDS011;6741;48.964;9.406;2023-02-24T03:44:05;41.87;;;28.07;;
13343;SDS011;6741;48.964;9.406;2023-02-24T03:46:35;47.30;;;29.17;;
13343;SDS011;6741;48.964;9.406;2023-02-24T03:49:04;45.10;;;28.93;;
13343;SDS011;6741;48.964;9.406;2023-02-24T03:51:41;43.20;;;29.30;;
13343;SDS011;6741;48.964;9.406;2023-02-24T03:54:16;39.53;;;27.20;;
13343;SDS011;6741;48.964;9.406;2023-02-24T03:56:57;40.37;;;28.40;;
13343;SDS011;6741;48.964;9.406;2023-02-24T03:59:33;44.13;;;29.03;;
13343;SDS011;6741;48.964;9.406;2023-02-24T04:02:08;45.80;;;28.87;;
13343;SDS011;6741;48.964;9.406;2023-02-24T04:04:45;45.50;;;30.73;;
13343;SDS011;6741;48.964;9.406;2023-02-24T04:07:20;42.70;;;28.33;;
13343;SDS011;6741;48.964;9.406;2023-02-24T04:10:04;46.03;;;30.70;;
13343;SDS011;6741;48.964;9.406;2023-02-24T04:12:37;45.20;;;29.97;;
13343;SDS011;6741;48.964;9.406;2023-02-24T04:15:09;48.90;;;30.93;;
13343;SDS011;6741;48.964;9.406;2023-02-24T04:17:43;48.23;;;31.37;;
13343;SDS011;6741;48.964;9.406;2023-02-24T04:20:14;46.37;;;31.27;;
13343;SDS011;6741;48.964;9.406;2023-02-24T04:22:46;50.10;;;29.20;;
13343;SDS011;6741;48.964;9.406;2023-02-24T04:25:19;49.43;;;31.17;;
13343;SDS011;6741;48.964;9.406;2023-02-24T04:27:49;49.00;;;30.43;;
13343;SDS011;6741;48.964;9.406;2023-02-24T04:30:17;45.13;;;28.70;;
13343;SDS011;6741;48.964;9.406;2023-02-24T04:32:45;48.70;;;31.80;;
13343;SDS011;6741;48.964;9.406;2023-02-24T04:35:13;52.20;;;32.10;;
13343;SDS011;6741;48.964;9.406;2023-02-24T04:37:41;44.17;;;30.33;;
13343;SDS011;6741;48.964;9.406;2023-02-24T04:40:11;47.53;;;29.13;;
13343;SDS011;6741;48.964;9.406;2023-02-24T04:42:41;48.20;;;29.93;;
13343;SDS011;6741;48.964;9.406;2023-02-24T04:45:13;47.87;;;29.17;;
13343;SDS011;6741;48.964;9.406;2023-02-24T04:47:41;44.30;;;27.70;;
13343;SDS011;6741;48.964;9.406;2023-02-24T04:50:13;47.03;;;29.33;;
13343;SDS011;6741;48.964;9.406;2023-02-24T04:52:47;50.50;;;31.57;;
13343;SDS011;6741;48.964;9.406;2023-02-24T04:55:20;49.53;;;30.80;;
13343;SDS011;6741;48.964;9.406;2023-02-24T04:57:51;50.47;;;30.40;;
13343;SDS011;6741;48.964;9.406;2023-02-24T05:00:19;56.07;;;32.60;;
13343;SDS011;6741;48.964;9.406;2023-02-24T05:02:47;59.60;;;34.37;;
13343;SDS011;6741;48.964;9.406;2023-02-24T05:05:15;52.60;;;31.17;;
13343;SDS011;6741;48.964;9.406;2023-02-24T05:07:49;64.73;;;34.63;;
13343;SDS011;6741;48.964;9.406;2023-02-24T05:10:16;59.30;;;33.03;;
13343;SDS011;6741;48.964;9.406;2023-02-24T05:12:45;57.40;;;34.03;;
13343;SDS011;6741;48.964;9.406;2023-02-24T05:15:12;57.03;;;33.10;;
13343;SDS011;6741;48.964;9.406;2023-02-24T05:17:39;59.47;;;34.47;;
13343;SDS011;6741;48.964;9.406;2023-02-24T05:20:07;54.50;;;34.13;;
13343;SDS011;6741;48.964;9.406;2023-02-24T05:22:52;53.20;;;33.40;;
13343;SDS011;6741;48.964;9.406;2023-02-24T05:25:20;54.30;;;30.77;;
13343;SDS011;6741;48.964;9.406;2023-02-24T05:27:50;58.30;;;32.53;;
13343;SDS011;6741;48.964;9.406;2023-02-24T05:30:17;61.83;;;35.60;;
13343;SDS011;6741;48.964;9.406;2023-02-24T05:32:44;60.57;;;35.80;;
13343;SDS011;6741;48.964;9.406;2023-02-24T05:35:11;63.00;;;35.27;;
13343;SDS011;6741;48.964;9.406;2023-02-24T05:37:38;60.33;;;32.87;;
13343;SDS011;6741;48.964;9.406;2023-02-24T05:40:08;57.10;;;31.80;;
13343;SDS011;6741;48.964;9.406;2023-02-24T05:42:39;55.37;;;32.60;;
13343;SDS011;6741;48.964;9.406;2023-02-24T05:45:10;56.63;;;32.87;;
13343;SDS011;6741;48.964;9.406;2023-02-24T05:47:37;57.47;;;32.13;;
13343;SDS011;6741;48.964;9.406;2023-02-24T05:50:05;54.30;;;33.77;;
13343;SDS011;6741;48.964;9.406;2023-02-24T05:52:36;65.67;;;36.40;;
13343;SDS011;6741;48.964;9.406;2023-02-24T05:55:03;64.43;;;37.63;;
13343;SDS011;6741;48.964;9.406;2023-02-24T05:57:38;65.50;;;34.53;;
13343;SDS011;6741;48.964;9.406;2023-02-24T06:00:06;61.03;;;31.53;;
13343;SDS011;6741;48.964;9.406;2023-02-24T06:02:41;58.50;;;31.30;;
13343;SDS011;6741;48.964;9.406;2023-02-24T06:05:14;58.63;;;32.47;;
13343;SDS011;6741;48.964;9.406;2023-02-24T06:07:53;57.77;;;32.53;;
13343;SDS011;6741;48.964;9.406;2023-02-24T06:10:28;67.97;;;33.53;;
13343;SDS011;6741;48.964;9.406;2023-02-24T06:12:57;59.77;;;33.43;;
13343;SDS011;6741;48.964;9.406;2023-02-24T06:15:26;61.83;;;32.53;;
13343;SDS011;6741;48.964;9.406;2023-02-24T06:17:54;60.20;;;33.13;;
13343;SDS011;6741;48.964;9.406;2023-02-24T06:20:22;57.43;;;31.10;;
13343;SDS011;6741;48.964;9.406;2023-02-24T06:22:51;61.97;;;33.43;;
13343;SDS011;6741;48.964;9.406;2023-02-24T06:25:19;63.20;;;33.23;;
13343;SDS011;6741;48.964;9.406;2023-02-24T06:27:49;59.77;;;32.73;;
13343;SDS011;6741;48.964;9.406;2023-02-24T06:30:20;64.63;;;34.33;;
13343;SDS011;6741;48.964;9.406;2023-02-24T06:32:48;64.80;;;33.17;;
13343;SDS011;6741;48.964;9.406;2023-02-24T06:35:17;64.20;;;33.70;;
13343;SDS011;6741;48.964;9.406;2023-02-24T06:37:44;66.73;;;33.80;;
13343;SDS011;6741;48.964;9.406;2023-02-24T06:40:12;66.40;;;34.77;;
13343;SDS011;6741;48.964;9.406;2023-02-24T06:42:45;70.70;;;35.70;;
13343;SDS011;6741;48.964;9.406;2023-02-24T06:45:12;69.20;;;34.20;;
13343;SDS011;6741;48.964;9.406;2023-02-24T06:47:40;63.50;;;33.23;;
13343;SDS011;6741;48.964;9.406;2023-02-24T06:50:08;62.33;;;35.53;;
13343;SDS011;6741;48.964;9.406;2023-02-24T06:52:37;65.27;;;34.80;;
13343;SDS011;6741;48.964;9.406;2023-02-24T06:55:05;60.53;;;32.13;;
13343;SDS011;6741;48.964;9.406;2023-02-24T06:57:49;60.87;;;33.87;;
13343;SDS011;6741;48.964;9.406;2023-02-24T07:00:21;61.23;;;34.30;;
13343;SDS011;6741;48.964;9.406;2023-02-24T07:03:01;73.63;;;36.33;;
13343;SDS011;6741;48.964;9.406;2023-02-24T07:05:39;76.73;;;37.60;;
13343;SDS011;6741;48.964;9.406;2023-02-24T07:08:16;73.07;;;38.27;;
13343;SDS011;6741;48.964;9.406;2023-02-24T07:10:50;69.03;;;36.67;;
13343;SDS011;6741;48.964;9.406;2023-02-24T07:13:18;71.57;;;36.83;;
13343;SDS011;6741;48.964;9.406;2023-02-24T07:15:45;70.40;;;35.60;;
13343;SDS011;6741;48.964;9.406;2023-02-24T07:18:14;66.83;;;36.37;;
13343;SDS011;6741;48.964;9.406;2023-02-24T07:20:44;71.47;;;37.73;;
13343;SDS011;6741;48.964;9.406;2023-02-24T07:23:12;72.50;;;37.53;;
13343;SDS011;6741;48.964;9.406;2023-02-24T07:25:41;64.63;;;37.27;;
13343;SDS011;6741;48.964;9.406;2023-02-24T07:28:10;78.47;;;37.60;;
13343;SDS011;6741;48.964;9.406;2023-02-24T07:30:38;82.27;;;39.63;;
13343;SDS011;6741;48.964;9.406;2023-02-24T07:33:06;76.70;;;40.90;;
13343;SDS011;6741;48.964;9.406;2023-02-24T07:35:33;88.93;;;44.87;;
13343;SDS011;6741;48.964;9.406;2023-02-24T07:38:00;86.00;;;43.27;;
13343;SDS011;6741;48.964;9.406;2023-02-24T07:40:29;89.40;;;44.10;;
13343;SDS011;6741;48.964;9.406;2023-02-24T07:42:59;92.27;;;44.97;;
13343;SDS011;6741;48.964;9.406;2023-02-24T07:45:26;99.63;;;44.40;;
13343;SDS011;6741;48.964;9.406;2023-02-24T07:47:54;98.93;;;44.47;;
13343;SDS011;6741;48.964;9.406;2023-02-24T07:50:21;91.33;;;42.50;;
13343;SDS011;6741;48.964;9.406;2023-02-24T07:52:48;93.33;;;45.30;;
13343;SDS011;6741;48.964;9.406;2023-02-24T07:55:15;103.07;;;45.80;;
13343;SDS011;6741;48.964;9.406;2023-02-24T07:57:43;97.20;;;45.47;;
13343;SDS011;6741;48.964;9.406;2023-02-24T08:00:14;96.50;;;45.57;;
13343;SDS011;6741;48.964;9.406;2023-02-24T08:02:43;91.93;;;45.77;;
13343;SDS011;6741;48.964;9.406;2023-02-24T08:05:10;97.20;;;45.53;;
13343;SDS011;6741;48.964;9.406;2023-02-24T08:07:38;109.37;;;44.40;;
13343;SDS011;6741;48.964;9.406;2023-02-24T08:10:06;88.17;;;42.73;;
13343;SDS011;6741;48.964;9.406;2023-02-24T08:12:48;103.87;;;43.13;;
13343;SDS011;6741;48.964;9.406;2023-02-24T08:15:20;93.33;;;43.23;;
13343;SDS011;6741;48.964;9.406;2023-02-24T08:17:51;97.53;;;43.77;;
13343;SDS011;6741;48.964;9.406;2023-02-24T08:20:23;100.17;;;45.03;;
13343;SDS011;6741;48.964;9.406;2023-02-24T08:22:52;110.60;;;43.70;;
13343;SDS011;6741;48.964;9.406;2023-02-24T08:25:20;115.57;;;44.23;;
13343;SDS011;6741;48.964;9.406;2023-02-24T08:27:50;110.40;;;43.93;;
13343;SDS011;6741;48.964;9.406;2023-02-24T08:30:23;109.57;;;45.10;;
13343;SDS011;6741;48.964;9.406;2023-02-24T08:32:54;112.10;;;43.27;;
13343;SDS011;6741;48.964;9.406;2023-02-24T08:35:22;111.10;;;44.10;;
13343;SDS011;6741;48.964;9.406;2023-02-24T08:37:56;112.03;;;41.60;;
13343;SDS011;6741;48.964;9.406;2023-02-24T08:40:29;108.40;;;46.80;;
13343;SDS011;6741;48.964;9.406;2023-02-24T08:43:15;117.57;;;43.43;;
13343;SDS011;6741;48.964;9.406;2023-02-24T08:45:57;112.90;;;42.03;;
13343;SDS011;6741;48.964;9.406;2023-02-24T08:48:28;122.17;;;43.53;;
13343;SDS011;6741;48.964;9.406;2023-02-24T08:51:03;111.30;;;41.40;;
13343;SDS011;6741;48.964;9.406;2023-02-24T08:53:33;105.57;;;40.00;;
13343;SDS011;6741;48.964;9.406;2023-02-24T08:56:04;110.83;;;41.30;;
13343;SDS011;6741;48.964;9.406;2023-02-24T08:58:35;97.57;;;38.33;;
13343;SDS011;6741;48.964;9.406;2023-02-24T09:01:10;96.63;;;40.47;;
13343;SDS011;6741;48.964;9.406;2023-02-24T09:03:43;86.43;;;36.73;;
13343;SDS011;6741;48.964;9.406;2023-02-24T09:06:11;88.30;;;37.70;;
13343;SDS011;6741;48.964;9.406;2023-02-24T09:08:41;97.77;;;37.87;;
13343;SDS011;6741;48.964;9.406;2023-02-24T09:11:10;88.80;;;36.90;;
13343;SDS011;6741;48.964;9.406;2023-02-24T09:13:39;100.40;;;38.53;;
13343;SDS011;6741;48.964;9.406;2023-02-24T09:16:18;90.87;;;38.93;;
13343;SDS011;6741;48.964;9.406;2023-02-24T09:18:47;84.13;;;35.47;;
13343;SDS011;6741;48.964;9.406;2023-02-24T09:21:35;87.97;;;37.37;;
13343;SDS011;6741;48.964;9.406;2023-02-24T09:24:20;85.53;;;35.83;;
13343;SDS011;6741;48.964;9.406;2023-02-24T09:26:52;81.00;;;37.30;;
13343;SDS011;6741;48.964;9.406;2023-02-24T09:29:22;84.23;;;34.27;;
13343;SDS011;6741;48.964;9.406;2023-02-24T09:32:00;77.80;;;33.07;;
13343;SDS011;6741;48.964;9.406;2023-02-24T09:34:32;64.40;;;31.83;;
13343;SDS011;6741;48.964;9.406;2023-02-24T09:37:01;68.43;;;30.70;;
13343;SDS011;6741;48.964;9.406;2023-02-24T09:39:30;63.00;;;30.33;;
13343;SDS011;6741;48.964;9.406;2023-02-24T09:42:19;57.83;;;28.73;;
13343;SDS011;6741;48.964;9.406;2023-02-24T09:44:59;62.60;;;28.97;;
13343;SDS011;6741;48.964;9.406;2023-02-24T09:47:31;68.70;;;29.93;;
13343;SDS011;6741;48.964;9.406;2023-02-24T09:50:16;61.23;;;27.50;;
13343;SDS011;6741;48.964;9.406;2023-02-24T09:52:56;54.60;;;27.53;;
13343;SDS011;6741;48.964;9.406;2023-02-24T09:55:39;60.70;;;27.83;;
13343;SDS011;6741;48.964;9.406;2023-02-24T09:58:26;59.13;;;29.70;;
13343;SDS011;6741;48.964;9.406;2023-02-24T10:01:03;58.93;;;28.97;;
13343;SDS011;6741;48.964;9.406;2023-02-24T10:03:56;55.00;;;27.27;;
13343;SDS011;6741;48.964;9.406;2023-02-24T10:06:32;51.37;;;26.90;;
13343;SDS011;6741;48.964;9.406;2023-02-24T10:09:05;56.97;;;26.27;;
13343;SDS011;6741;48.964;9.406;2023-02-24T10:11:38;56.83;;;25.33;;
13343;SDS011;6741;48.964;9.406;2023-02-24T10:14:17;52.20;;;27.07;;
13343;SDS011;6741;48.964;9.406;2023-02-24T10:16:48;52.67;;;24.60;;
13343;SDS011;6741;48.964;9.406;2023-02-24T10:19:42;54.50;;;25.10;;
13343;SDS011;6741;48.964;9.406;2023-02-24T10:22:12;64.47;;;28.10;;
13343;SDS011;6741;48.964;9.406;2023-02-24T10:24:53;62.90;;;27.70;;
13343;SDS011;6741;48.964;9.406;2023-02-24T10:27:36;56.83;;;26.47;;
13343;SDS011;6741;48.964;9.406;2023-02-24T10:30:26;57.67;;;27.63;;
13343;SDS011;6741;48.964;9.406;2023-02-24T10:33:08;67.40;;;27.80;;
13343;SDS011;6741;48.964;9.406;2023-02-24T10:35:50;60.33;;;27.47;;
13343;SDS011;6741;48.964;9.406;2023-02-24T10:38:33;61.17;;;28.13;;
13343;SDS011;6741;48.964;9.406;2023-02-24T10:41:00;60.23;;;27.73;;
13343;SDS011;6741;48.964;9.406;2023-02-24T10:43:30;61.77;;;28.00;;
13343;SDS011;6741;48.964;9.406;2023-02-24T10:46:16;63.63;;;28.83;;
13343;SDS011;6741;48.964;9.406;2023-02-24T10:48:50;59.47;;;26.97;;
13343;SDS011;6741;48.964;9.406;2023-02-24T10:51:27;63.20;;;26.57;;
13343;SDS011;6741;48.964;9.406;2023-02-24T10:54:03;58.03;;;27.73;;
13343;SDS011;6741;48.964;9.406;2023-02-24T10:56:46;58.27;;;27.63;;
13343;SDS011;6741;48.964;9.406;2023-02-24T10:59:39;57.30;;;27.03;;
13343;SDS011;6741;48.964;9.406;2023-02-24T11:02:34;56.20;;;26.23;;
13343;SDS011;6741;48.964;9.406;2023-02-24T11:05:20;58.80;;;27.07;;
13343;SDS011;6741;48.964;9.406;2023-02-24T11:08:10;56.53;;;26.97;;
13343;SDS011;6741;48.964;9.406;2023-02-24T11:10:50;56.27;;;26.90;;
13343;SDS011;6741;48.964;9.406;2023-02-24T11:13:30;61.40;;;28.97;;
13343;SDS011;6741;48.964;9.406;2023-02-24T11:16:16;60.70;;;28.63;;
13343;SDS011;6741;48.964;9.406;2023-02-24T11:19:01;58.87;;;26.53;;
13343;SDS011;6741;48.964;9.406;2023-02-24T11:21:31;59.53;;;26.87;;
13343;SDS011;6741;48.964;9.406;2023-02-24T11:24:00;59.63;;;27.23;;
13343;SDS011;6741;48.964;9.406;2023-02-24T11:26:31;55.97;;;26.17;;
13343;SDS011;6741;48.964;9.406;2023-02-24T11:29:12;62.33;;;29.30;;
13343;SDS011;6741;48.964;9.406;2023-02-24T11:32:00;57.70;;;25.67;;
13343;SDS011;6741;48.964;9.406;2023-02-24T11:34:37;57.63;;;27.17;;
13343;SDS011;6741;48.964;9.406;2023-02-24T11:37:16;49.47;;;25.47;;
13343;SDS011;6741;48.964;9.406;2023-02-24T11:39:58;45.33;;;24.70;;
13343;SDS011;6741;48.964;9.406;2023-02-24T11:42:29;50.23;;;26.50;;
13343;SDS011;6741;48.964;9.406;2023-02-24T11:45:00;50.73;;;25.50;;
13343;SDS011;6741;48.964;9.406;2023-02-24T11:47:34;50.07;;;24.30;;
13343;SDS011;6741;48.964;9.406;2023-02-24T11:50:13;45.13;;;22.20;;
13343;SDS011;6741;48.964;9.406;2023-02-24T11:52:51;50.80;;;22.30;;
13343;SDS011;6741;48.964;9.406;2023-02-24T11:55:26;43.10;;;23.87;;
13343;SDS011;6741;48.964;9.406;2023-02-24T11:58:00;43.70;;;22.87;;
13343;SDS011;6741;48.964;9.406;2023-02-24T12:00:33;37.97;;;21.20;;
13343;SDS011;6741;48.964;9.406;2023-02-24T12:03:05;48.63;;;24.77;;
13343;SDS011;6741;48.964;9.406;2023-02-24T12:05:40;45.43;;;23.37;;
13343;SDS011;6741;48.964;9.406;2023-02-24T12:08:14;45.30;;;23.03;;
13343;SDS011;6741;48.964;9.406;2023-02-24T12:10:55;43.83;;;21.73;;
13343;SDS011;6741;48.964;9.406;2023-02-24T12:13:28;48.07;;;23.80;;
13343;SDS011;6741;48.964;9.406;2023-02-24T12:16:06;47.07;;;23.50;;
13343;SDS011;6741;48.964;9.406;2023-02-24T12:18:39;43.00;;;23.07;;
13343;SDS011;6741;48.964;9.406;2023-02-24T12:21:12;44.07;;;23.10;;
13343;SDS011;6741;48.964;9.406;2023-02-24T12:23:46;41.43;;;22.87;;
13343;SDS011;6741;48.964;9.406;2023-02-24T12:26:32;40.13;;;20.73;;
13343;SDS011;6741;48.964;9.406;2023-02-24T12:29:15;36.70;;;20.77;;
13343;SDS011;6741;48.964;9.406;2023-02-24T12:32:01;40.27;;;21.80;;
13343;SDS011;6741;48.964;9.406;2023-02-24T12:34:42;41.97;;;22.13;;
13343;SDS011;6741;48.964;9.406;2023-02-24T12:37:47;43.37;;;24.23;;
13343;SDS011;6741;48.964;9.406;2023-02-24T12:40:34;41.17;;;21.63;;
13343;SDS011;6741;48.964;9.406;2023-02-24T12:43:12;38.60;;;21.30;;
13343;SDS011;6741;48.964;9.406;2023-02-24T12:45:50;38.23;;;19.80;;
13343;SDS011;6741;48.964;9.406;2023-02-24T12:48:27;33.20;;;19.07;;
13343;SDS011;6741;48.964;9.406;2023-02-24T12:51:04;42.10;;;21.70;;
13343;SDS011;6741;48.964;9.406;2023-02-24T12:53:39;39.27;;;20.70;;
13343;SDS011;6741;48.964;9.406;2023-02-24T12:56:11;35.63;;;18.67;;
13343;SDS011;6741;48.964;9.406;2023-02-24T12:58:46;34.67;;;18.47;;
13343;SDS011;6741;48.964;9.406;2023-02-24T13:01:18;35.73;;;20.00;;
13343;SDS011;6741;48.964;9.406;2023-02-24T13:03:53;39.63;;;20.00;;
13343;SDS011;6741;48.964;9.406;2023-02-24T13:06:35;36.73;;;20.37;;
13343;SDS011;6741;48.964;9.406;2023-02-24T13:09:11;41.83;;;21.00;;
13343;SDS011;6741;48.964;9.406;2023-02-24T13:11:48;38.00;;;19.67;;
13343;SDS011;6741;48.964;9.406;2023-02-24T13:14:23;37.67;;;20.90;;
13343;SDS011;6741;48.964;9.406;2023-02-24T13:17:15;34.90;;;18.73;;
13343;SDS011;6741;48.964;9.406;2023-02-24T13:19:45;41.27;;;20.93;;
13343;SDS011;6741;48.964;9.406;2023-02-24T13:22:20;37.23;;;19.80;;
13343;SDS011;6741;48.964;9.406;2023-02-24T13:25:09;43.90;;;20.57;;
13343;SDS011;6741;48.964;9.406;2023-02-24T13:27:52;39.00;;;20.23;;
13343;SDS011;6741;48.964;9.406;2023-02-24T13:30:31;35.80;;;19.17;;
13343;SDS011;6741;48.964;9.406;2023-02-24T13:33:05;36.97;;;19.20;;
13343;SDS011;6741;48.964;9.406;2023-02-24T13:35:46;34.37;;;17.60;;
13343;SDS011;6741;48.964;9.406;2023-02-24T13:38:22;39.13;;;20.93;;
13343;SDS011;6741;48.964;9.406;2023-02-24T13:40:51;36.40;;;19.97;;
13343;SDS011;6741;48.964;9.406;2023-02-24T13:43:25;41.03;;;21.23;;
13343;SDS011;6741;48.964;9.406;2023-02-24T13:45:59;39.87;;;19.93;;
13343;SDS011;6741;48.964;9.406;2023-02-24T13:48:42;39.17;;;20.17;;
13343;SDS011;6741;48.964;9.406;2023-02-24T13:51:23;36.47;;;18.97;;
13343;SDS011;6741;48.964;9.406;2023-02-24T13:54:16;40.57;;;20.17;;
13343;SDS011;6741;48.964;9.406;2023-02-24T13:56:54;37.17;;;19.90;;
13343;SDS011;6741;48.964;9.406;2023-02-24T13:59:32;34.70;;;19.43;;
13343;SDS011;6741;48.964;9.406;2023-02-24T14:02:14;40.63;;;20.67;;
13343;SDS011;6741;48.964;9.406;2023-02-24T14:04:44;38.37;;;20.20;;
13343;SDS011;6741;48.964;9.406;2023-02-24T14:07:16;35.03;;;19.53;;
13343;SDS011;6741;48.964;9.406;2023-02-24T14:09:46;32.70;;;18.80;;
13343;SDS011;6741;48.964;9.406;2023-02-24T14:12:17;31.33;;;17.77;;
13343;SDS011;6741;48.964;9.406;2023-02-24T14:14:48;31.70;;;18.10;;
13343;SDS011;6741;48.964;9.406;2023-02-24T14:17:23;34.90;;;18.93;;
13343;SDS011;6741;48.964;9.406;2023-02-24T14:19:53;35.33;;;19.57;;
13343;SDS011;6741;48.964;9.406;2023-02-24T14:22:21;34.43;;;18.63;;
13343;SDS011;6741;48.964;9.406;2023-02-24T14:24:48;33.40;;;18.20;;
13343;SDS011;6741;48.964;9.406;2023-02-24T14:27:25;31.17;;;17.60;;
13343;SDS011;6741;48.964;9.406;2023-02-24T14:29:52;32.03;;;18.17;;
13343;SDS011;6741;48.964;9.406;2023-02-24T14:32:23;32.53;;;18.17;;
13343;SDS011;6741;48.964;9.406;2023-02-24T14:34:52;35.17;;;19.27;;
13343;SDS011;6741;48.964;9.406;2023-02-24T14:37:20;32.67;;;18.63;;
13343;SDS011;6741;48.964;9.406;2023-02-24T14:39:50;32.50;;;17.67;;
13343;SDS011;6741;48.964;9.406;2023-02-24T14:42:19;32.13;;;17.43;;
13343;SDS011;6741;48.964;9.406;2023-02-24T14:44:48;32.07;;;17.90;;
13343;SDS011;6741;48.964;9.406;2023-02-24T14:47:17;31.83;;;18.47;;
13343;SDS011;6741;48.964;9.406;2023-02-24T14:49:54;32.77;;;17.77;;
13343;SDS011;6741;48.964;9.406;2023-02-24T14:52:25;30.60;;;18.40;;
13343;SDS011;6741;48.964;9.406;2023-02-24T14:54:58;33.00;;;17.63;;
13343;SDS011;6741;48.964;9.406;2023-02-24T14:57:32;29.07;;;18.60;;
13343;SDS011;6741;48.964;9.406;2023-02-24T15:00:04;31.80;;;17.80;;
13343;SDS011;6741;48.964;9.406;2023-02-24T15:02:37;29.23;;;16.27;;
13343;SDS011;6741;48.964;9.406;2023-02-24T15:05:09;28.50;;;15.30;;
13343;SDS011;6741;48.964;9.406;2023-02-24T15:07:37;29.90;;;16.97;;
13343;SDS011;6741;48.964;9.406;2023-02-24T15:10:06;32.13;;;16.90;;
13343;SDS011;6741;48.964;9.406;2023-02-24T15:12:45;29.50;;;17.57;;